createdAt,value
2018-07-26T00:00:56.971Z,995.55
2018-07-26T00:02:06.523Z,995.56
2018-07-26T00:03:16.605Z,995.55
2018-07-26T00:04:26.428Z,995.54
2018-07-26T00:05:36.503Z,995.52
2018-07-26T00:06:46.331Z,995.58
2018-07-26T00:07:56.479Z,995.58
2018-07-26T00:09:06.568Z,995.59
2018-07-26T00:10:16.640Z,995.6
2018-07-26T00:11:26.738Z,995.58
2018-07-26T00:12:36.805Z,995.53
2018-07-26T00:13:46.375Z,995.55
2018-07-26T00:14:55.967Z,995.51
2018-07-26T00:16:06.054Z,995.47
2018-07-26T00:17:16.150Z,995.51
2018-07-26T00:18:26.214Z,995.46
2018-07-26T00:19:36.043Z,995.5
2018-07-26T00:20:45.612Z,995.49
2018-07-26T00:21:55.676Z,995.4
2018-07-26T00:23:05.739Z,995.42
2018-07-26T00:24:15.817Z,995.43
2018-07-26T00:25:25.912Z,995.42
2018-07-26T00:26:35.977Z,995.4
2018-07-26T00:27:46.048Z,995.51
2018-07-26T00:28:56.119Z,995.54
2018-07-26T00:30:06.196Z,995.53
2018-07-26T00:31:16.272Z,995.53
2018-07-26T00:32:26.351Z,995.54
2018-07-26T00:33:36.165Z,995.56
2018-07-26T00:34:46.244Z,995.58
2018-07-26T00:35:56.320Z,995.58
2018-07-26T00:37:06.163Z,995.57
2018-07-26T00:38:16.258Z,995.63
2018-07-26T00:39:26.344Z,995.55
2018-07-26T00:40:36.415Z,995.56
2018-07-26T00:41:46.479Z,995.5
2018-07-26T00:42:56.051Z,995.5
2018-07-26T00:44:06.373Z,995.5
2018-07-26T00:45:16.458Z,995.44
2018-07-26T00:46:26.551Z,995.49
2018-07-26T00:47:36.641Z,995.54
2018-07-26T00:48:46.789Z,995.45
2018-07-26T00:49:57.075Z,995.5
2018-07-26T00:51:07.143Z,995.53
2018-07-26T00:52:17.238Z,995.48
2018-07-26T00:53:27.311Z,995.55
2018-07-26T00:54:37.432Z,995.57
2018-07-26T00:55:47.506Z,995.52
2018-07-26T00:56:57.583Z,995.56
2018-07-26T00:58:07.653Z,995.58
2018-07-26T00:59:17.767Z,995.55
2018-07-26T01:00:27.843Z,995.53
2018-07-26T01:01:37.919Z,995.63
2018-07-26T01:02:47.998Z,995.58
2018-07-26T01:03:58.082Z,995.6
2018-07-26T01:05:08.248Z,995.6
2018-07-26T01:06:18.084Z,995.68
2018-07-26T01:07:28.174Z,995.65
2018-07-26T01:08:38.244Z,995.61
2018-07-26T01:09:48.297Z,995.61
2018-07-26T01:10:58.114Z,995.61
2018-07-26T01:12:08.193Z,995.59
2018-07-26T01:13:18.264Z,995.59
2018-07-26T01:14:28.324Z,995.58
2018-07-26T01:15:38.397Z,995.56
2018-07-26T01:16:48.485Z,995.55
2018-07-26T01:17:58.561Z,995.52
2018-07-26T01:19:08.628Z,995.52
2018-07-26T01:20:18.194Z,995.52
2018-07-26T01:21:28.282Z,995.48
2018-07-26T01:22:38.090Z,995.5
2018-07-26T01:23:48.171Z,995.49
2018-07-26T01:24:58.251Z,995.51
2018-07-26T01:26:08.063Z,995.54
2018-07-26T01:27:17.877Z,995.53
2018-07-26T01:28:27.682Z,995.5
2018-07-26T01:29:37.739Z,995.44
2018-07-26T01:30:47.554Z,995.47
2018-07-26T01:31:57.647Z,995.46
2018-07-26T01:33:07.770Z,995.48
2018-07-26T01:34:17.835Z,995.51
2018-07-26T01:35:27.663Z,995.48
2018-07-26T01:36:37.488Z,995.49
2018-07-26T01:37:47.566Z,995.53
2018-07-26T01:38:57.663Z,995.52
2018-07-26T01:40:07.718Z,995.57
2018-07-26T01:41:17.794Z,995.62
2018-07-26T01:42:27.860Z,995.6
2018-07-26T01:43:37.404Z,995.6
2018-07-26T01:44:47.464Z,995.6
2018-07-26T01:45:57.571Z,995.64
2018-07-26T01:47:07.640Z,995.6
2018-07-26T01:48:17.716Z,995.58
2018-07-26T01:49:27.793Z,995.56
2018-07-26T01:50:37.870Z,995.6
2018-07-26T01:51:47.746Z,995.56
2018-07-26T01:52:57.823Z,995.55
2018-07-26T01:54:07.381Z,995.54
2018-07-26T01:55:17.197Z,995.5
2018-07-26T01:56:27.274Z,995.53
2018-07-26T01:57:37.107Z,995.55
2018-07-26T01:58:47.192Z,995.59
2018-07-26T01:59:57.260Z,995.57
2018-07-26T02:01:07.332Z,995.62
2018-07-26T02:02:17.411Z,995.63
2018-07-26T02:03:27.269Z,995.66
2018-07-26T02:04:37.350Z,995.67
2018-07-26T02:05:47.468Z,995.7
2018-07-26T02:06:57.551Z,995.7
2018-07-26T02:08:07.627Z,995.63
2018-07-26T02:09:17.480Z,995.63
2018-07-26T02:10:27.309Z,995.62
2018-07-26T02:11:37.403Z,995.61
2018-07-26T02:12:47.217Z,995.66
2018-07-26T02:13:57.049Z,995.68
2018-07-26T02:15:07.118Z,995.64
2018-07-26T02:16:16.723Z,995.6
2018-07-26T02:17:26.800Z,995.59
2018-07-26T02:18:36.868Z,995.59
2018-07-26T02:19:46.949Z,995.59
2018-07-26T02:20:56.770Z,995.6
2018-07-26T02:22:06.871Z,995.62
2018-07-26T02:23:16.673Z,995.6
2018-07-26T02:24:26.504Z,995.61
2018-07-26T02:25:36.573Z,995.63
2018-07-26T02:26:46.645Z,995.66
2018-07-26T02:27:56.732Z,995.65
2018-07-26T02:29:06.813Z,995.67
2018-07-26T02:30:16.883Z,995.66
2018-07-26T02:31:26.960Z,995.64
2018-07-26T02:32:37.045Z,995.64
2018-07-26T02:33:47.134Z,995.59
2018-07-26T02:34:57.205Z,995.62
2018-07-26T02:36:07.036Z,995.61
2018-07-26T02:37:17.112Z,995.6
2018-07-26T02:38:27.021Z,995.54
2018-07-26T02:39:36.835Z,995.51
2018-07-26T02:40:46.904Z,995.53
2018-07-26T02:41:56.973Z,995.57
2018-07-26T02:43:07.049Z,995.53
2018-07-26T02:44:17.194Z,995.54
2018-07-26T02:45:27.261Z,995.49
2018-07-26T02:46:37.377Z,995.54
2018-07-26T02:47:47.212Z,995.45
2018-07-26T02:48:57.301Z,995.48
2018-07-26T02:50:07.371Z,995.53
2018-07-26T02:51:17.435Z,995.53
2018-07-26T02:52:27.594Z,995.57
2018-07-26T02:53:37.667Z,995.57
2018-07-26T02:54:47.478Z,995.59
2018-07-26T02:55:57.557Z,995.59
2018-07-26T02:57:07.453Z,995.59
2018-07-26T02:58:17.310Z,995.6
2018-07-26T02:59:27.376Z,995.61
2018-07-26T03:00:37.461Z,995.61
2018-07-26T03:01:47.557Z,995.66
2018-07-26T03:02:57.648Z,995.63
2018-07-26T03:35:12.912Z,995.89
2018-07-26T03:36:22.996Z,995.9
2018-07-26T03:37:33.074Z,995.93
2018-07-26T03:38:43.134Z,995.9
2018-07-26T03:39:52.953Z,995.93
2018-07-26T03:41:03.077Z,995.95
2018-07-26T03:42:13.622Z,995.95
2018-07-26T03:43:26.696Z,995.95
2018-07-26T03:44:37.069Z,995.95
2018-07-26T03:45:47.137Z,995.97
2018-07-26T03:46:56.940Z,995.97
2018-07-26T03:48:07.017Z,995.99
2018-07-26T03:49:17.100Z,995.99
2018-07-26T03:50:26.930Z,995.95
2018-07-26T03:51:36.994Z,996
2018-07-26T03:52:47.098Z,995.99
2018-07-26T03:53:57.005Z,995.99
2018-07-26T03:55:06.820Z,995.96
2018-07-26T03:56:16.910Z,996.02
2018-07-26T03:57:27.025Z,995.98
2018-07-26T03:58:36.838Z,996
2018-07-26T03:59:46.657Z,995.99
2018-07-26T04:00:56.728Z,996.01
2018-07-26T04:02:06.790Z,996.04
2018-07-26T04:03:16.876Z,996.03
2018-07-26T04:04:26.878Z,996.06
2018-07-26T04:05:37.012Z,996.03
2018-07-26T04:06:46.753Z,996.07
2018-07-26T04:07:56.563Z,996.05
2018-07-26T04:09:06.629Z,996.05
2018-07-26T04:10:16.768Z,996.05
2018-07-26T04:11:26.855Z,996.07
2018-07-26T04:12:36.706Z,996.03
2018-07-26T04:13:46.833Z,996.04
2018-07-26T04:14:56.679Z,996.06
2018-07-26T04:16:06.761Z,996.02
2018-07-26T04:17:16.848Z,996.02
2018-07-26T04:18:26.913Z,995.99
2018-07-26T04:19:37.018Z,996.01
2018-07-26T04:20:47.110Z,996.03
2018-07-26T04:21:56.915Z,996
2018-07-26T04:23:06.461Z,996.02
2018-07-26T04:24:16.534Z,996.05
2018-07-26T04:25:26.604Z,996.13
2018-07-26T04:26:36.689Z,996.28
2018-07-26T04:27:46.795Z,996.27
2018-07-26T04:28:56.866Z,996.14
2018-07-26T04:30:06.704Z,996.11
2018-07-26T04:31:16.778Z,996.12
2018-07-26T04:32:26.339Z,996.08
2018-07-26T04:33:36.423Z,996.11
2018-07-26T04:34:46.494Z,996.11
2018-07-26T04:35:56.570Z,996.09
2018-07-26T04:37:06.656Z,996.06
2018-07-26T04:38:16.744Z,996.11
2018-07-26T04:39:26.548Z,996.1
2018-07-26T04:40:36.639Z,996.12
2018-07-26T04:41:46.715Z,996.12
2018-07-26T04:42:56.643Z,996.18
2018-07-26T04:44:06.702Z,996.19
2018-07-26T04:45:16.833Z,996.17
2018-07-26T04:46:26.900Z,996.2
2018-07-26T04:47:36.767Z,996.21
2018-07-26T04:48:46.872Z,996.24
2018-07-26T04:49:57.191Z,996.16
2018-07-26T04:51:07.267Z,996.25
2018-07-26T04:52:17.091Z,996.26
2018-07-26T04:53:26.949Z,996.2
2018-07-26T04:54:37.150Z,996.27
2018-07-26T04:55:47.818Z,996.31
2018-07-26T04:56:57.642Z,996.62
2018-07-26T04:58:07.463Z,996.69
2018-07-26T04:59:17.546Z,996.79
2018-07-26T05:00:27.351Z,996.78
2018-07-26T05:01:37.444Z,996.73
2018-07-26T05:02:47.577Z,996.72
2018-07-26T05:03:57.392Z,996.67
2018-07-26T05:05:07.488Z,996.66
2018-07-26T05:06:17.579Z,996.67
2018-07-26T05:07:27.651Z,996.65
2018-07-26T05:08:37.732Z,996.64
2018-07-26T05:09:47.834Z,996.64
2018-07-26T05:10:57.643Z,996.64
2018-07-26T05:12:07.727Z,996.67
2018-07-26T05:13:17.817Z,996.67
2018-07-26T05:14:27.697Z,997.12
2018-07-26T05:15:37.518Z,997.47
2018-07-26T05:16:47.616Z,997.21
2018-07-26T05:17:57.689Z,997.24
2018-07-26T05:19:07.558Z,997.23
2018-07-26T05:20:18.067Z,997.04
2018-07-26T05:21:28.127Z,997.09
2018-07-26T05:22:38.203Z,997.23
2018-07-26T05:23:48.299Z,997.26
2018-07-26T05:24:58.121Z,997.19
2018-07-26T05:26:08.180Z,997.15
2018-07-26T05:27:18.002Z,997.19
2018-07-26T05:28:28.089Z,997.22
2018-07-26T05:29:38.170Z,997.2
2018-07-26T05:30:47.986Z,997.4
2018-07-26T05:31:58.094Z,997.39
2018-07-26T05:33:08.177Z,997.26
2018-07-26T05:34:18.259Z,997.21
2018-07-26T05:35:28.070Z,997.25
2018-07-26T05:36:38.159Z,997.41
2018-07-26T05:37:48.268Z,997.32
2018-07-26T05:38:58.561Z,997.27
2018-07-26T05:40:08.396Z,997.35
2018-07-26T05:41:18.493Z,997.3
2018-07-26T05:42:28.571Z,997.28
2018-07-26T05:43:38.717Z,997.38
2018-07-26T05:44:48.799Z,997.28
2018-07-26T05:45:58.879Z,997.34
2018-07-26T05:47:08.997Z,997.31
2018-07-26T05:48:19.082Z,997.31
2018-07-26T05:49:28.633Z,997.32
2018-07-26T05:50:38.725Z,997.3
2018-07-26T05:51:48.925Z,997.23
2018-07-26T05:52:59.070Z,997.26
2018-07-26T05:54:08.912Z,997.3
2018-07-26T05:55:18.994Z,997.24
2018-07-26T05:56:28.803Z,997.25
2018-07-26T05:57:38.880Z,997.23
2018-07-26T05:58:48.981Z,997.24
2018-07-26T05:59:58.806Z,997.2
2018-07-26T06:01:09.171Z,997.18
2018-07-26T06:02:19.003Z,997.21
2018-07-26T06:03:28.816Z,997.21
2018-07-26T06:04:38.953Z,997.16
2018-07-26T06:05:49.036Z,997.09
2018-07-26T06:06:59.119Z,997.02
2018-07-26T06:08:09.198Z,996.88
2018-07-26T06:09:19.278Z,996.9
2018-07-26T06:10:29.362Z,996.97
2018-07-26T06:11:39.448Z,996.94
2018-07-26T06:12:49.541Z,997.18
2018-07-26T06:13:59.353Z,997.22
2018-07-26T06:15:09.174Z,997.14
2018-07-26T06:16:19.318Z,997.01
2018-07-26T06:17:29.428Z,996.99
2018-07-26T06:18:39.512Z,997.04
2018-07-26T06:19:49.600Z,997
2018-07-26T06:20:59.710Z,997.02
2018-07-26T06:22:09.270Z,997.02
2018-07-26T06:23:19.373Z,996.96
2018-07-26T06:24:29.179Z,996.99
2018-07-26T06:25:39.254Z,996.99
2018-07-26T06:26:49.327Z,997
2018-07-26T06:27:59.239Z,996.98
2018-07-26T06:29:09.872Z,997.02
2018-07-26T06:30:19.959Z,996.99
2018-07-26T06:31:29.517Z,997.04
2018-07-26T06:32:39.339Z,997.01
2018-07-26T06:33:49.436Z,997
2018-07-26T06:34:59.598Z,997.03
2018-07-26T06:36:09.688Z,997.01
2018-07-26T06:37:19.504Z,997.01
2018-07-26T06:38:29.329Z,997.03
2018-07-26T06:39:39.419Z,997.01
2018-07-26T06:40:49.540Z,997.01
2018-07-26T06:41:59.617Z,997.02
2018-07-26T06:43:09.689Z,997.04
2018-07-26T06:44:19.781Z,997.04
2018-07-26T06:45:29.596Z,997.05
2018-07-26T06:46:39.701Z,997.04
2018-07-26T06:47:49.795Z,997.07
2018-07-26T06:48:59.877Z,997.09
2018-07-26T06:50:09.975Z,997.06
2018-07-26T06:51:19.784Z,997.05
2018-07-26T06:52:29.865Z,997.06
2018-07-26T06:53:40.152Z,997.06
2018-07-26T06:54:50.237Z,997.07
2018-07-26T06:56:00.297Z,997.04
2018-07-26T06:57:10.377Z,997.07
2018-07-26T06:58:20.467Z,997.08
2018-07-26T06:59:30.538Z,997.05
2018-07-26T07:00:40.661Z,997.07
2018-07-26T07:01:50.633Z,997
2018-07-26T07:03:00.444Z,997.06
2018-07-26T07:04:10.530Z,997.06
2018-07-26T07:05:20.343Z,997.06
2018-07-26T07:06:30.433Z,997.07
2018-07-26T07:07:40.575Z,997.1
2018-07-26T07:08:50.636Z,997.07
2018-07-26T07:10:00.747Z,997.11
2018-07-26T07:11:10.847Z,997.11
2018-07-26T07:12:20.942Z,997.15
2018-07-26T07:13:30.818Z,997.15
2018-07-26T07:14:40.636Z,997.13
2018-07-26T07:15:50.705Z,997.11
2018-07-26T07:17:00.790Z,997.11
2018-07-26T07:18:10.876Z,997.09
2018-07-26T07:19:20.964Z,997.08
2018-07-26T07:20:30.847Z,997.05
2018-07-26T07:21:40.765Z,997.08
2018-07-26T07:22:50.841Z,997.05
2018-07-26T07:24:00.397Z,997.08
2018-07-26T07:25:10.551Z,997.09
2018-07-26T07:26:20.107Z,997.1
2018-07-26T07:27:29.931Z,997.11
2018-07-26T07:28:39.750Z,997.09
2018-07-26T07:29:49.333Z,997.07
2018-07-26T07:30:59.587Z,997.13
2018-07-26T07:32:09.701Z,997.1
2018-07-26T07:33:19.879Z,997.04
2018-07-26T07:34:29.537Z,997.07
2018-07-26T07:35:39.702Z,997.06
2018-07-26T07:36:49.907Z,997.05
2018-07-26T07:38:00.007Z,997.07
2018-07-26T07:39:09.827Z,997.03
2018-07-26T07:40:19.378Z,997.05
2018-07-26T07:41:29.199Z,997.04
2018-07-26T07:42:39.383Z,997.06
2018-07-26T07:43:49.489Z,997.06
2018-07-26T07:44:59.311Z,997.03
2018-07-26T07:46:09.444Z,997.04
2018-07-26T07:47:19.411Z,997.05
2018-07-26T07:48:29.557Z,997.02
2018-07-26T07:49:39.633Z,996.97
2018-07-26T07:50:49.463Z,996.99
2018-07-26T07:51:59.578Z,997
2018-07-26T07:53:09.668Z,997.01
2018-07-26T07:54:19.759Z,997.02
2018-07-26T07:55:29.854Z,996.95
2018-07-26T07:56:39.940Z,996.97
2018-07-26T07:57:50.051Z,996.96
2018-07-26T07:59:00.186Z,996.91
2018-07-26T08:00:10.293Z,996.99
2018-07-26T08:01:20.378Z,996.96
2018-07-26T08:02:30.189Z,996.95
2018-07-26T08:03:40.264Z,996.99
2018-07-26T08:04:50.144Z,996.93
2018-07-26T08:06:00.226Z,996.93
2018-07-26T08:07:10.312Z,996.91
2018-07-26T08:08:19.895Z,996.94
2018-07-26T08:09:30.003Z,996.96
2018-07-26T08:10:39.829Z,996.95
2018-07-26T08:11:49.898Z,996.93
2018-07-26T08:12:59.716Z,996.93
2018-07-26T08:14:09.525Z,996.96
2018-07-26T08:15:19.352Z,996.91
2018-07-26T08:16:29.231Z,996.99
2018-07-26T08:17:39.303Z,996.92
2018-07-26T08:18:49.381Z,996.95
2018-07-26T08:19:59.466Z,996.97
2018-07-26T08:21:09.785Z,996.9
2018-07-26T08:22:19.985Z,996.91
2018-07-26T08:23:30.074Z,996.9
2018-07-26T08:24:40.161Z,996.86
2018-07-26T08:25:49.984Z,996.79
2018-07-26T08:27:00.064Z,996.89
2018-07-26T08:28:09.620Z,996.84
2018-07-26T08:29:19.738Z,996.82
2018-07-26T08:30:30.131Z,996.88
2018-07-26T08:31:39.710Z,996.81
2018-07-26T08:32:49.799Z,996.81
2018-07-26T08:33:59.918Z,996.78
2018-07-26T08:35:10.059Z,996.77
2018-07-26T08:36:20.501Z,996.78
2018-07-26T08:37:30.581Z,996.8
2018-07-26T08:38:40.666Z,996.74
2018-07-26T08:39:50.822Z,996.78
2018-07-26T08:41:00.409Z,996.73
2018-07-26T08:42:10.093Z,996.76
2018-07-26T08:43:19.919Z,996.75
2018-07-26T08:44:29.998Z,996.76
2018-07-26T08:45:39.815Z,996.7
2018-07-26T08:46:49.901Z,996.72
2018-07-26T08:47:59.735Z,996.76
2018-07-26T08:49:09.966Z,996.74
2018-07-26T08:50:20.027Z,996.76
2018-07-26T08:51:30.106Z,996.74
2018-07-26T08:52:40.189Z,996.71
2018-07-26T08:53:50.020Z,996.64
2018-07-26T08:54:59.832Z,996.72
2018-07-26T08:56:09.964Z,996.74
2018-07-26T08:57:20.052Z,996.69
2018-07-26T08:58:30.164Z,996.71
2018-07-26T08:59:40.048Z,996.77
2018-07-26T09:00:50.150Z,996.71
2018-07-26T09:01:59.977Z,996.72
2018-07-26T09:03:10.851Z,996.69
2018-07-26T09:04:22.218Z,996.65
2018-07-26T09:05:34.728Z,996.69
2018-07-26T09:06:50.609Z,996.78
2018-07-26T09:08:02.653Z,996.68
2018-07-26T09:09:12.756Z,996.71
2018-07-26T09:10:22.976Z,996.71
2018-07-26T09:11:33.131Z,996.69
2018-07-26T09:12:43.480Z,996.65
2018-07-26T09:13:53.651Z,996.69
2018-07-26T09:15:03.757Z,996.7
2018-07-26T09:16:13.856Z,996.68
2018-07-26T09:17:23.937Z,996.67
2018-07-26T09:18:33.769Z,996.68
2018-07-26T09:19:43.859Z,996.67
2018-07-26T09:20:54.107Z,996.72
2018-07-26T09:22:04.204Z,996.69
2018-07-26T09:23:14.292Z,996.71
2018-07-26T09:24:24.414Z,996.67
2018-07-26T09:25:34.847Z,996.7
2018-07-26T09:26:44.944Z,996.76
2018-07-26T09:27:55.027Z,996.72
2018-07-26T09:29:05.116Z,996.75
2018-07-26T09:30:15.179Z,996.65
2018-07-26T09:31:25.334Z,996.68
2018-07-26T09:32:35.162Z,996.62
2018-07-26T09:33:44.991Z,996.59
2018-07-26T09:34:55.067Z,996.65
2018-07-26T09:36:05.157Z,996.59
2018-07-26T09:37:14.980Z,996.6
2018-07-26T09:38:25.085Z,996.65
2018-07-26T09:39:35.159Z,996.65
2018-07-26T09:40:44.460Z,996.64
2018-07-26T09:41:54.554Z,996.67
2018-07-26T09:43:04.652Z,996.64
2018-07-26T09:44:14.473Z,996.58
2018-07-26T09:45:24.538Z,996.65
2018-07-26T09:46:34.369Z,996.68
2018-07-26T09:47:44.452Z,996.64
2018-07-26T09:48:54.274Z,996.71
2018-07-26T09:50:04.358Z,996.71
2018-07-26T09:51:14.439Z,996.62
2018-07-26T09:52:24.533Z,996.66
2018-07-26T09:53:34.654Z,996.75
2018-07-26T09:54:44.484Z,996.66
2018-07-26T09:55:54.635Z,996.63
2018-07-26T09:57:04.736Z,996.6
2018-07-26T09:58:14.547Z,996.55
2018-07-26T09:59:24.721Z,996.57
2018-07-26T10:00:34.546Z,996.52
2018-07-26T10:01:44.367Z,996.55
2018-07-26T10:02:54.462Z,996.54
2018-07-26T10:04:04.779Z,996.6
2018-07-26T10:05:14.865Z,996.56
2018-07-26T10:06:25.086Z,996.62
2018-07-26T10:07:35.183Z,996.58
2018-07-26T10:08:45.272Z,996.56
2018-07-26T10:09:55.370Z,996.61
2018-07-26T10:11:05.215Z,996.6
2018-07-26T10:12:15.283Z,996.57
2018-07-26T10:13:25.155Z,996.59
2018-07-26T10:14:35.252Z,996.59
2018-07-26T10:15:45.394Z,996.49
2018-07-26T10:16:55.556Z,996.48
2018-07-26T10:18:05.395Z,996.48
2018-07-26T10:19:15.269Z,996.45
2018-07-26T10:20:25.081Z,996.4
2018-07-26T10:21:35.172Z,996.44
2018-07-26T10:22:45.266Z,996.38
2018-07-26T10:23:55.343Z,996.43
2018-07-26T10:25:05.419Z,996.46
2018-07-26T10:26:15.500Z,996.45
2018-07-26T10:27:25.588Z,996.44
2018-07-26T10:28:35.434Z,996.39
2018-07-26T10:29:45.298Z,996.4
2018-07-26T10:30:54.876Z,996.36
2018-07-26T10:32:04.964Z,996.4
2018-07-26T10:33:14.784Z,996.35
2018-07-26T10:34:24.875Z,996.36
2018-07-26T10:35:34.974Z,996.38
2018-07-26T10:36:45.057Z,996.34
2018-07-26T10:37:54.931Z,996.3
2018-07-26T10:39:05.037Z,996.3
2018-07-26T10:40:15.151Z,996.28
2018-07-26T10:41:25.266Z,996.26
2018-07-26T10:42:35.381Z,996.24
2018-07-26T10:43:45.206Z,996.3
2018-07-26T10:44:55.292Z,996.32
2018-07-26T10:46:05.112Z,996.27
2018-07-26T10:47:15.220Z,996.31
2018-07-26T10:48:25.089Z,996.27
2018-07-26T10:49:35.408Z,996.24
2018-07-26T10:50:45.512Z,996.26
2018-07-26T10:51:55.618Z,996.21
2018-07-26T10:53:05.202Z,996.21
2018-07-26T10:54:15.343Z,996.2
2018-07-26T10:55:25.164Z,996.16
2018-07-26T10:56:35.264Z,996.12
2018-07-26T10:57:44.813Z,996.07
2018-07-26T10:58:54.382Z,996.12
2018-07-26T11:00:03.998Z,996.11
2018-07-26T11:01:13.871Z,996.08
2018-07-26T11:02:23.166Z,996.09
2018-07-26T11:03:33.308Z,996.09
2018-07-26T11:04:43.360Z,995.98
2018-07-26T11:05:53.203Z,995.97
2018-07-26T11:07:03.302Z,996.02
2018-07-26T11:08:13.404Z,995.98
2018-07-26T11:09:23.487Z,996.05
2018-07-26T11:10:33.700Z,996.04
2018-07-26T11:11:43.807Z,995.95
2018-07-26T11:12:53.895Z,996
2018-07-26T11:14:03.993Z,996.03
2018-07-26T11:15:14.092Z,996
2018-07-26T11:16:24.076Z,996
2018-07-26T11:17:34.095Z,995.97
2018-07-26T11:18:43.953Z,995.96
2018-07-26T11:19:53.834Z,995.87
2018-07-26T11:21:03.924Z,995.77
2018-07-26T11:22:14.018Z,995.84
2018-07-26T11:23:23.898Z,995.94
2018-07-26T11:24:33.969Z,995.89
2018-07-26T11:25:44.086Z,995.9
2018-07-26T11:26:54.569Z,995.91
2018-07-26T11:28:04.461Z,995.88
2018-07-26T11:29:14.604Z,995.82
2018-07-26T11:30:24.690Z,995.82
2018-07-26T11:31:34.769Z,995.75
2018-07-26T11:32:44.844Z,995.77
2018-07-26T11:33:54.957Z,995.82
2018-07-26T11:35:04.830Z,995.7
2018-07-26T11:36:14.934Z,995.63
2018-07-26T11:37:24.772Z,995.72
2018-07-26T11:38:34.862Z,995.77
2018-07-26T11:39:44.947Z,995.75
2018-07-26T11:40:55.026Z,995.74
2018-07-26T11:42:05.192Z,995.72
2018-07-26T11:43:15.047Z,995.62
2018-07-26T11:44:25.145Z,995.7
2018-07-26T11:45:35.227Z,995.7
2018-07-26T11:46:45.115Z,995.61
2018-07-26T11:47:55.206Z,995.68
2018-07-26T11:49:05.284Z,995.65
2018-07-26T11:50:15.189Z,995.65
2018-07-26T11:51:25.427Z,995.64
2018-07-26T11:52:35.581Z,995.58
2018-07-26T11:53:45.592Z,995.56
2018-07-26T11:54:55.424Z,995.51
2018-07-26T11:56:05.237Z,995.54
2018-07-26T11:57:15.069Z,995.58
2018-07-26T11:58:25.178Z,995.57
2018-07-26T11:59:35.265Z,995.53
2018-07-26T12:00:45.094Z,995.61
2018-07-26T12:01:54.991Z,995.56
2018-07-26T12:03:05.189Z,995.53
2018-07-26T12:04:15.284Z,995.54
2018-07-26T12:05:25.363Z,995.5
2018-07-26T12:06:35.195Z,995.47
2018-07-26T12:07:45.046Z,995.41
2018-07-26T12:08:55.135Z,995.42
2018-07-26T12:10:05.239Z,995.45
2018-07-26T12:11:15.068Z,995.44
2018-07-26T12:12:24.913Z,995.41
2018-07-26T12:13:35.018Z,995.34
2018-07-26T12:14:45.122Z,995.34
2018-07-26T12:15:54.686Z,995.34
2018-07-26T12:17:04.765Z,995.25
2018-07-26T12:18:14.595Z,995.31
2018-07-26T12:19:24.677Z,995.23
2018-07-26T12:20:34.856Z,995.26
2018-07-26T12:21:44.949Z,995.3
2018-07-26T12:22:54.772Z,995.3
2018-07-26T12:24:05.050Z,995.31
2018-07-26T12:25:14.914Z,995.3
2018-07-26T12:26:24.475Z,995.23
2018-07-26T12:27:34.581Z,995.24
2018-07-26T12:28:44.400Z,995.14
2018-07-26T12:29:54.493Z,995.13
2018-07-26T12:31:04.317Z,995.1
2018-07-26T12:32:14.466Z,995.05
2018-07-26T12:33:24.547Z,995.11
2018-07-26T12:34:34.427Z,995.08
2018-07-26T12:35:44.585Z,995.1
2018-07-26T12:36:55.038Z,995.06
2018-07-26T12:38:04.644Z,995.1
2018-07-26T12:39:14.476Z,995.06
2018-07-26T12:40:24.558Z,995.06
2018-07-26T12:41:34.649Z,994.97
2018-07-26T12:42:44.747Z,994.99
2018-07-26T12:43:54.300Z,995.03
2018-07-26T12:45:04.408Z,994.97
2018-07-26T12:46:14.247Z,994.97
2018-07-26T12:47:24.610Z,995.04
2018-07-26T12:48:35.081Z,994.98
2018-07-26T12:49:45.177Z,995.05
2018-07-26T12:50:55.275Z,994.98
2018-07-26T12:52:05.107Z,994.96
2018-07-26T12:53:15.220Z,994.94
2018-07-26T12:54:25.341Z,994.96
2018-07-26T12:55:35.562Z,994.9
2018-07-26T12:56:45.663Z,994.92
2018-07-26T12:57:55.754Z,994.83
2018-07-26T12:59:05.842Z,994.85
2018-07-26T13:00:15.683Z,994.85
2018-07-26T13:01:25.772Z,994.77
2018-07-26T13:02:36.288Z,994.68
2018-07-26T13:03:46.373Z,994.79
2018-07-26T13:04:56.479Z,994.8
2018-07-26T13:06:06.596Z,994.73
2018-07-26T13:07:16.803Z,994.76
2018-07-26T13:08:26.991Z,994.86
2018-07-26T13:09:36.824Z,994.82
2018-07-26T13:10:46.401Z,994.85
2018-07-26T13:11:56.476Z,994.73
2018-07-26T13:13:05.568Z,994.79
2018-07-26T13:14:15.663Z,994.81
2018-07-26T13:15:25.762Z,994.73
2018-07-26T13:16:35.859Z,994.73
2018-07-26T13:17:45.998Z,994.67
2018-07-26T13:18:56.101Z,994.67
2018-07-26T13:20:06.192Z,994.63
2018-07-26T13:21:16.022Z,994.64
2018-07-26T13:22:26.118Z,994.59
2018-07-26T13:23:36.238Z,994.61
2018-07-26T13:24:46.325Z,994.59
2018-07-26T13:25:56.465Z,994.55
2018-07-26T13:27:06.564Z,994.6
2018-07-26T13:28:16.345Z,994.59
2018-07-26T13:29:26.492Z,994.6
2018-07-26T13:30:36.648Z,994.6
2018-07-26T13:31:46.223Z,994.63
2018-07-26T13:32:56.318Z,994.55
2018-07-26T13:34:06.411Z,994.56
2018-07-26T13:35:16.641Z,994.59
2018-07-26T13:36:26.802Z,994.6
2018-07-26T13:37:36.622Z,994.57
2018-07-26T13:38:46.727Z,994.57
2018-07-26T13:39:56.601Z,994.58
2018-07-26T13:41:07.221Z,994.49
2018-07-26T13:42:17.382Z,994.52
2018-07-26T13:43:27.475Z,994.53
2018-07-26T13:44:37.575Z,994.48
2018-07-26T13:45:47.665Z,994.48
2018-07-26T13:46:57.482Z,994.47
2018-07-26T13:48:07.328Z,994.47
2018-07-26T13:49:17.401Z,994.44
2018-07-26T13:50:27.511Z,994.45
2018-07-26T13:51:37.616Z,994.44
2018-07-26T13:52:47.709Z,994.46
2018-07-26T13:53:57.856Z,994.34
2018-07-26T13:55:07.975Z,994.37
2018-07-26T13:56:18.079Z,994.36
2018-07-26T13:57:28.161Z,994.37
2018-07-26T13:58:38.005Z,994.35
2018-07-26T13:59:48.157Z,994.24
2018-07-26T14:00:57.979Z,994.19
2018-07-26T14:02:08.095Z,994.17
2018-07-26T14:03:17.938Z,994.23
2018-07-26T14:04:28.030Z,994.19
2018-07-26T14:05:38.131Z,994.19
2018-07-26T14:06:48.227Z,994.25
2018-07-26T14:07:58.335Z,994.27
2018-07-26T14:09:08.435Z,994.33
2018-07-26T14:10:18.534Z,994.33
2018-07-26T14:11:28.697Z,994.34
2018-07-26T14:12:38.631Z,994.32
2018-07-26T14:13:48.753Z,994.3
2018-07-26T14:14:58.570Z,994.42
2018-07-26T14:16:08.507Z,994.32
2018-07-26T14:17:18.713Z,994.3
2018-07-26T14:18:28.804Z,994.29
2018-07-26T14:19:38.688Z,994.28
2018-07-26T14:20:48.530Z,994.24
2018-07-26T14:21:58.868Z,994.36
2018-07-26T14:23:09.008Z,994.32
2018-07-26T14:24:19.130Z,994.33
2018-07-26T14:25:29.232Z,994.23
2018-07-26T14:26:39.325Z,994.22
2018-07-26T14:27:49.427Z,994.28
2018-07-26T14:28:59.449Z,994.31
2018-07-26T14:30:09.309Z,994.3
2018-07-26T14:31:19.422Z,994.31
2018-07-26T14:32:29.536Z,994.3
2018-07-26T14:33:39.692Z,994.28
2018-07-26T14:34:49.838Z,994.38
2018-07-26T14:35:59.932Z,994.36
2018-07-26T14:37:09.768Z,994.42
2018-07-26T14:38:19.948Z,994.49
2018-07-26T14:39:30.239Z,994.49
2018-07-26T14:40:40.374Z,994.5
2018-07-26T14:41:50.474Z,994.43
2018-07-26T14:43:00.582Z,994.49
2018-07-26T14:44:10.140Z,994.54
2018-07-26T14:45:20.253Z,994.54
2018-07-26T14:46:30.099Z,994.56
2018-07-26T14:47:40.210Z,994.59
2018-07-26T14:48:50.304Z,994.64
2018-07-26T14:50:00.442Z,994.6
2018-07-26T14:51:10.541Z,994.71
2018-07-26T14:52:20.455Z,994.69
2018-07-26T14:53:30.556Z,994.67
2018-07-26T14:54:40.657Z,994.67
2018-07-26T14:55:50.497Z,994.68
2018-07-26T14:57:00.330Z,994.66
2018-07-26T14:58:10.173Z,994.7
2018-07-26T14:59:20.254Z,994.66
2018-07-26T15:00:30.112Z,994.66
2018-07-26T15:01:40.524Z,994.63
2018-07-26T15:02:50.607Z,994.67
2018-07-26T15:04:00.509Z,994.7
2018-07-26T15:05:11.012Z,994.7
2018-07-26T15:06:21.199Z,994.7
2018-07-26T15:07:31.432Z,994.7
2018-07-26T15:08:41.540Z,994.69
2018-07-26T15:09:51.423Z,994.64